createdAt,value
2023-03-30T00:00:58.423Z,62.58
2023-03-30T00:01:58.409Z,62.58
2023-03-30T00:02:58.584Z,62.48
2023-03-30T00:03:58.563Z,62.48
2023-03-30T00:04:58.655Z,62.68
2023-03-30T00:05:58.403Z,62.58
2023-03-30T00:06:58.409Z,62.68
2023-03-30T00:07:58.396Z,62.58
2023-03-30T00:08:58.389Z,62.58
2023-03-30T00:09:58.380Z,62.68
2023-03-30T00:10:58.387Z,62.68
2023-03-30T00:11:58.378Z,62.58
2023-03-30T00:12:58.374Z,62.68
2023-03-30T00:13:58.376Z,62.58
2023-03-30T00:14:58.372Z,62.48
2023-03-30T00:15:58.367Z,62.68
2023-03-30T00:16:58.396Z,62.68
2023-03-30T00:17:58.382Z,62.58
2023-03-30T00:18:58.349Z,62.68
2023-03-30T00:19:58.379Z,62.68
2023-03-30T00:20:58.404Z,62.68
2023-03-30T00:21:58.362Z,62.77
2023-03-30T00:22:58.363Z,62.77
2023-03-30T00:23:58.349Z,62.58
2023-03-30T00:24:58.325Z,62.58
2023-03-30T00:25:58.334Z,62.68
2023-03-30T00:26:58.342Z,62.58
2023-03-30T00:27:58.329Z,62.68
2023-03-30T00:28:58.325Z,62.58
2023-03-30T00:29:58.329Z,62.58
2023-03-30T00:30:58.318Z,62.58
2023-03-30T00:31:58.339Z,62.68
2023-03-30T00:32:58.310Z,62.58
2023-03-30T00:33:58.293Z,62.58
2023-03-30T00:34:58.293Z,62.58
2023-03-30T00:35:58.409Z,62.58
2023-03-30T00:36:58.284Z,62.68
2023-03-30T00:37:58.282Z,62.58
2023-03-30T00:38:58.309Z,62.58
2023-03-30T00:39:58.284Z,62.68
2023-03-30T00:40:58.272Z,62.58
2023-03-30T00:41:58.281Z,62.58
2023-03-30T00:42:58.269Z,62.58
2023-03-30T00:43:58.267Z,62.48
2023-03-30T00:44:58.268Z,62.96
2023-03-30T00:45:58.283Z,62.77
2023-03-30T00:46:58.271Z,62.58
2023-03-30T00:47:58.294Z,62.58
2023-03-30T00:48:58.316Z,62.77
2023-03-30T00:49:58.251Z,62.58
2023-03-30T00:50:58.252Z,62.77
2023-03-30T00:51:58.247Z,62.68
2023-03-30T00:52:58.233Z,62.87
2023-03-30T00:53:58.225Z,62.58
2023-03-30T00:54:58.259Z,62.77
2023-03-30T00:55:58.249Z,62.68
2023-03-30T00:56:58.241Z,62.87
2023-03-30T00:57:58.235Z,62.87
2023-03-30T00:58:58.215Z,62.87
2023-03-30T00:59:58.215Z,62.68
2023-03-30T01:00:58.211Z,62.77
2023-03-30T01:01:58.242Z,62.48
2023-03-30T01:02:58.295Z,62.77
2023-03-30T01:03:58.273Z,62.87
2023-03-30T01:04:58.196Z,62.77
2023-03-30T01:05:58.186Z,62.77
2023-03-30T01:06:58.203Z,62.77
2023-03-30T01:07:58.178Z,62.77
2023-03-30T01:08:58.181Z,62.68
2023-03-30T01:09:58.180Z,62.68
2023-03-30T01:10:58.214Z,62.77
2023-03-30T01:11:58.199Z,62.77
2023-03-30T01:12:58.162Z,62.96
2023-03-30T01:13:58.182Z,62.58
2023-03-30T01:14:58.179Z,62.87
2023-03-30T01:15:58.205Z,62.87
2023-03-30T01:16:58.155Z,62.87
2023-03-30T01:17:58.246Z,62.87
2023-03-30T01:18:58.164Z,62.96
2023-03-30T01:19:58.154Z,62.99
2023-03-30T01:20:58.139Z,62.68
2023-03-30T01:21:58.144Z,62.96
2023-03-30T01:22:58.134Z,62.87
2023-03-30T01:23:58.131Z,62.96
2023-03-30T01:24:58.133Z,62.58
2023-03-30T01:25:58.117Z,62.10
2023-03-30T01:26:58.135Z,62.77
2023-03-30T01:27:58.108Z,62.87
2023-03-30T01:28:58.108Z,62.87
2023-03-30T01:29:58.117Z,62.68
2023-03-30T01:30:58.195Z,62.48
2023-03-30T01:31:58.101Z,62.87
2023-03-30T01:32:58.123Z,62.77
2023-03-30T01:33:58.112Z,62.87
2023-03-30T01:34:58.184Z,62.96
2023-03-30T01:35:58.229Z,62.68
2023-03-30T01:36:58.103Z,62.77
2023-03-30T01:37:58.087Z,62.87
2023-03-30T01:38:58.092Z,62.96
2023-03-30T01:39:58.074Z,62.77
2023-03-30T01:40:58.106Z,62.77
2023-03-30T01:41:58.091Z,61.91
2023-03-30T01:42:58.086Z,62.81
2023-03-30T01:43:58.080Z,62.68
2023-03-30T01:44:58.069Z,62.77
2023-03-30T01:45:58.070Z,62.48
2023-03-30T01:46:58.112Z,62.04
2023-03-30T01:47:58.100Z,62.58
2023-03-30T01:48:58.034Z,62.68
2023-03-30T01:49:58.039Z,62.77
2023-03-30T01:50:58.047Z,62.68
2023-03-30T01:51:58.042Z,62.58
2023-03-30T01:52:58.046Z,62.87
2023-03-30T01:53:58.056Z,61.91
2023-03-30T01:54:58.041Z,61.94
2023-03-30T01:55:58.028Z,62.77
2023-03-30T01:56:58.079Z,62.81
2023-03-30T01:57:58.019Z,62.81
2023-03-30T01:58:58.047Z,62.13
2023-03-30T01:59:58.028Z,62.68
2023-03-30T02:00:58.001Z,62.81
2023-03-30T02:01:58.008Z,62.87
2023-03-30T02:02:58.093Z,62.77
2023-03-30T02:03:58.197Z,62.77
2023-03-30T02:04:57.998Z,62.71
2023-03-30T02:05:57.991Z,62.81
2023-03-30T02:06:57.984Z,62.81
2023-03-30T02:07:57.999Z,62.81
2023-03-30T02:08:57.974Z,62.87
2023-03-30T02:09:57.971Z,62.81
2023-03-30T02:10:57.959Z,62.71
2023-03-30T02:11:57.964Z,62.71
2023-03-30T02:12:57.968Z,62.13
2023-03-30T02:13:57.960Z,62.61
2023-03-30T02:14:57.989Z,62.87
2023-03-30T02:15:57.990Z,62.68
2023-03-30T02:16:57.947Z,62.81
2023-03-30T02:17:57.969Z,62.61
2023-03-30T02:18:57.932Z,62.77
2023-03-30T02:19:57.947Z,62.81
2023-03-30T02:20:57.936Z,62.68
2023-03-30T02:21:57.950Z,62.19
2023-03-30T02:22:57.936Z,62.90
2023-03-30T02:23:57.940Z,62.29
2023-03-30T02:24:57.932Z,62.90
2023-03-30T02:25:57.954Z,62.52
2023-03-30T02:26:57.907Z,62.29
2023-03-30T02:27:57.926Z,62.81
2023-03-30T02:28:57.904Z,62.32
2023-03-30T02:29:57.915Z,62.32
2023-03-30T02:30:57.913Z,62.42
2023-03-30T02:31:57.988Z,62.29
2023-03-30T02:32:57.948Z,62.42
2023-03-30T02:33:57.902Z,62.42
2023-03-30T02:34:57.887Z,62.29
2023-03-30T02:35:57.928Z,62.42
2023-03-30T02:36:57.894Z,62.42
2023-03-30T02:37:57.896Z,62.39
2023-03-30T02:38:57.919Z,62.42
2023-03-30T02:39:57.882Z,62.42
2023-03-30T02:40:57.884Z,62.61
2023-03-30T02:41:57.881Z,62.32
2023-03-30T02:42:57.863Z,62.32
2023-03-30T02:43:57.866Z,62.42
2023-03-30T02:44:57.845Z,62.23
2023-03-30T02:45:57.884Z,62.42
2023-03-30T02:46:57.882Z,62.61
2023-03-30T02:47:57.882Z,62.61
2023-03-30T02:48:57.830Z,62.52
2023-03-30T02:49:57.864Z,62.58
2023-03-30T02:50:57.869Z,62.71
2023-03-30T02:51:57.826Z,62.61
2023-03-30T02:52:57.837Z,62.61
2023-03-30T02:53:57.836Z,62.52
2023-03-30T02:54:57.826Z,62.61
2023-03-30T02:55:57.809Z,62.52
2023-03-30T02:56:57.862Z,62.52
2023-03-30T02:57:57.812Z,62.61
2023-03-30T02:58:57.823Z,62.32
2023-03-30T02:59:57.823Z,62.52
2023-03-30T03:01:00.400Z,62.61
2023-03-30T03:01:57.857Z,62.52
2023-03-30T03:02:57.972Z,62.52
2023-03-30T03:03:57.799Z,62.42
2023-03-30T03:04:57.789Z,62.52
2023-03-30T03:05:57.810Z,62.52
2023-03-30T03:06:57.776Z,62.32
2023-03-30T03:07:57.774Z,62.52
2023-03-30T03:08:57.835Z,62.32
2023-03-30T03:09:57.778Z,62.52
2023-03-30T03:10:57.786Z,62.42
2023-03-30T03:11:57.782Z,62.23
2023-03-30T03:12:57.757Z,62.13
2023-03-30T03:13:57.771Z,62.42
2023-03-30T03:14:57.770Z,62.52
2023-03-30T03:15:57.749Z,62.23
2023-03-30T03:16:57.765Z,62.42
2023-03-30T03:17:57.766Z,62.23
2023-03-30T03:18:57.763Z,62.13
2023-03-30T03:19:57.750Z,62.42
2023-03-30T03:20:57.744Z,62.13
2023-03-30T03:21:57.728Z,62.23
2023-03-30T03:22:57.721Z,62.52
2023-03-30T03:23:57.719Z,62.42
2023-03-30T03:24:57.735Z,62.61
2023-03-30T03:25:57.724Z,62.13
2023-03-30T03:26:57.733Z,62.13
2023-03-30T03:27:57.704Z,62.52
2023-03-30T03:28:57.729Z,62.52
2023-03-30T03:29:57.703Z,62.32
2023-03-30T03:30:57.760Z,62.42
2023-03-30T03:31:57.707Z,62.52
2023-03-30T03:32:57.727Z,62.42
2023-03-30T03:33:57.686Z,62.42
2023-03-30T03:34:57.713Z,62.42
2023-03-30T03:36:13.758Z,62.42
2023-03-30T03:36:57.686Z,62.52
2023-03-30T03:37:57.669Z,62.42
2023-03-30T03:38:57.680Z,62.42
2023-03-30T03:39:57.676Z,62.42
2023-03-30T03:40:57.686Z,62.42
2023-03-30T03:41:57.668Z,62.42
2023-03-30T03:42:57.668Z,62.04
2023-03-30T03:43:57.670Z,62.42
2023-03-30T03:44:57.670Z,62.32
2023-03-30T03:45:57.701Z,62.13
2023-03-30T03:46:57.795Z,62.42
2023-03-30T03:47:57.794Z,62.32
2023-03-30T03:48:57.656Z,62.52
2023-03-30T03:49:57.640Z,62.42
2023-03-30T03:50:57.665Z,62.13
2023-03-30T03:51:57.644Z,62.32
2023-03-30T03:52:57.621Z,62.42
2023-03-30T03:53:57.622Z,62.32
2023-03-30T03:54:57.646Z,62.32
2023-03-30T03:55:57.620Z,62.42
2023-03-30T03:56:57.620Z,62.32
2023-03-30T03:57:57.596Z,62.23
2023-03-30T03:58:57.612Z,62.32
2023-03-30T03:59:57.611Z,62.23
2023-03-30T04:00:57.607Z,62.13
2023-03-30T04:01:57.650Z,62.32
2023-03-30T04:02:57.623Z,62.32
2023-03-30T04:03:57.609Z,62.19
2023-03-30T04:04:57.636Z,62.23
2023-03-30T04:05:57.594Z,62.23
2023-03-30T04:06:57.612Z,62.61
2023-03-30T04:07:57.578Z,62.32
2023-03-30T04:08:57.579Z,62.32
2023-03-30T04:09:57.577Z,62.13
2023-03-30T04:10:57.559Z,62.52
2023-03-30T04:11:57.586Z,62.04
2023-03-30T04:12:57.567Z,62.52
2023-03-30T04:13:57.572Z,62.23
2023-03-30T04:14:57.544Z,62.52
2023-03-30T04:15:57.617Z,62.32
2023-03-30T04:16:57.551Z,62.52
2023-03-30T04:17:57.577Z,62.52
2023-03-30T04:18:57.598Z,62.52
2023-03-30T04:19:57.528Z,62.61
2023-03-30T04:20:57.545Z,62.42
2023-03-30T04:21:57.517Z,62.61
2023-03-30T04:22:57.552Z,62.32
2023-03-30T04:23:57.519Z,62.52
2023-03-30T04:24:57.530Z,62.61
2023-03-30T04:25:57.503Z,62.52
2023-03-30T04:26:57.508Z,62.52
2023-03-30T04:27:57.522Z,62.42
2023-03-30T04:28:57.508Z,62.32
2023-03-30T04:29:57.498Z,62.61
2023-03-30T04:30:57.513Z,62.52
2023-03-30T04:31:57.532Z,62.32
2023-03-30T04:32:57.588Z,62.52
2023-03-30T04:33:57.487Z,62.52
2023-03-30T04:34:57.490Z,62.52
2023-03-30T04:35:57.510Z,62.71
2023-03-30T04:36:57.494Z,62.42
2023-03-30T04:37:57.486Z,62.52
2023-03-30T04:38:57.514Z,62.52
2023-03-30T04:39:57.468Z,62.71
2023-03-30T04:40:57.480Z,62.52
2023-03-30T04:41:57.481Z,62.52
2023-03-30T04:42:57.479Z,62.52
2023-03-30T04:43:57.466Z,62.52
2023-03-30T04:44:57.451Z,62.61
2023-03-30T04:45:57.531Z,62.61
2023-03-30T04:46:57.484Z,62.13
2023-03-30T04:47:57.479Z,62.04
2023-03-30T04:48:57.444Z,61.94
2023-03-30T04:49:57.443Z,61.94
2023-03-30T04:50:57.449Z,62.04
2023-03-30T04:51:57.439Z,61.94
2023-03-30T04:52:57.420Z,61.65
2023-03-30T04:53:57.437Z,61.84
2023-03-30T04:54:57.440Z,61.75
2023-03-30T04:55:57.419Z,61.55
2023-03-30T04:56:57.451Z,61.84
2023-03-30T04:57:57.405Z,62.04
2023-03-30T04:58:57.432Z,61.94
2023-03-30T04:59:57.401Z,62.23
2023-03-30T05:00:57.409Z,62.04
2023-03-30T05:01:57.444Z,61.94
2023-03-30T05:02:57.513Z,62.04
2023-03-30T05:03:57.409Z,61.94
2023-03-30T05:04:57.410Z,61.75
2023-03-30T05:05:57.390Z,61.46
2023-03-30T05:06:57.461Z,61.36
2023-03-30T05:07:57.385Z,61.78
2023-03-30T05:08:57.393Z,61.40
2023-03-30T05:09:57.367Z,61.46
2023-03-30T05:10:57.418Z,61.58
2023-03-30T05:11:57.384Z,61.49
2023-03-30T05:12:57.383Z,61.40
2023-03-30T05:13:57.378Z,61.40
2023-03-30T05:14:57.359Z,61.40
2023-03-30T05:15:57.355Z,61.20
2023-03-30T05:16:57.359Z,61.01
2023-03-30T05:17:57.398Z,61.20
2023-03-30T05:18:57.365Z,61.01
2023-03-30T05:19:57.342Z,61.20
2023-03-30T05:20:57.340Z,61.20
2023-03-30T05:21:57.352Z,61.01
2023-03-30T05:22:57.353Z,61.30
2023-03-30T05:23:57.343Z,61.20
2023-03-30T05:24:57.338Z,61.40
2023-03-30T05:25:57.370Z,61.40
2023-03-30T05:26:57.366Z,60.82
2023-03-30T05:27:57.323Z,61.11
2023-03-30T05:28:57.356Z,61.01
2023-03-30T05:29:57.318Z,61.01
2023-03-30T05:30:57.373Z,61.33
2023-03-30T05:31:57.322Z,60.94
2023-03-30T05:32:57.377Z,60.91
2023-03-30T05:33:57.328Z,60.82
2023-03-30T05:34:57.317Z,61.01
2023-03-30T05:35:57.359Z,60.91
2023-03-30T05:36:57.452Z,60.75
2023-03-30T05:37:57.314Z,61.14
2023-03-30T05:38:57.294Z,61.14
2023-03-30T05:39:57.313Z,60.56
2023-03-30T05:40:57.301Z,60.85
2023-03-30T05:41:57.298Z,60.37
2023-03-30T05:42:57.320Z,60.27
2023-03-30T05:43:57.296Z,60.56
2023-03-30T05:44:57.302Z,60.46
2023-03-30T05:45:57.313Z,60.46
2023-03-30T05:46:57.296Z,60.27
2023-03-30T05:47:57.317Z,60.56
2023-03-30T05:48:57.301Z,60.17
2023-03-30T05:49:57.267Z,60.46
2023-03-30T05:50:57.276Z,60.27
2023-03-30T05:51:57.281Z,60.37
2023-03-30T05:52:57.269Z,60.27
2023-03-30T05:53:57.276Z,60.46
2023-03-30T05:54:57.286Z,60.27
2023-03-30T05:55:57.289Z,60.27
2023-03-30T05:56:57.303Z,60.21
2023-03-30T05:57:57.287Z,60.17
2023-03-30T05:58:57.273Z,60.17
2023-03-30T05:59:57.260Z,60.27
2023-03-30T06:00:57.270Z,60.46
2023-03-30T06:01:57.244Z,60.08
2023-03-30T06:02:57.354Z,60.59
2023-03-30T06:03:57.384Z,60.59
2023-03-30T06:04:57.307Z,60.39
2023-03-30T06:05:57.282Z,60.49
2023-03-30T06:06:57.236Z,60.49
2023-03-30T06:07:57.225Z,60.30
2023-03-30T06:08:57.228Z,60.59
2023-03-30T06:09:57.244Z,60.59
2023-03-30T06:10:57.246Z,60.59
2023-03-30T06:11:57.229Z,60.59
2023-03-30T06:12:57.251Z,61.16
2023-03-30T06:13:57.218Z,61.16
2023-03-30T06:14:57.255Z,61.07
2023-03-30T06:15:57.420Z,60.97
2023-03-30T06:16:57.431Z,61.07
2023-03-30T06:17:57.578Z,60.97
2023-03-30T06:18:57.224Z,61.36
2023-03-30T06:19:57.226Z,60.97
2023-03-30T06:20:57.221Z,60.97
2023-03-30T06:21:57.212Z,61.16
2023-03-30T06:22:57.265Z,61.26
2023-03-30T06:23:57.207Z,61.46
2023-03-30T06:24:57.246Z,61.26
2023-03-30T06:25:57.192Z,61.36
2023-03-30T06:26:57.187Z,61.26
2023-03-30T06:27:57.261Z,61.16
2023-03-30T06:28:57.183Z,61.07
2023-03-30T06:29:57.181Z,60.88
2023-03-30T06:30:57.197Z,61.04
2023-03-30T06:31:57.228Z,61.26
2023-03-30T06:32:57.240Z,61.04
2023-03-30T06:33:57.178Z,61.23
2023-03-30T06:34:57.199Z,61.26
2023-03-30T06:35:57.346Z,61.16
2023-03-30T06:36:57.184Z,61.43
2023-03-30T06:37:57.180Z,61.52
2023-03-30T06:38:57.182Z,61.65
2023-03-30T06:39:57.180Z,61.46
2023-03-30T06:40:57.193Z,61.46
2023-03-30T06:41:57.178Z,61.46
2023-03-30T06:42:57.206Z,61.71
2023-03-30T06:43:57.155Z,61.55
2023-03-30T06:44:57.204Z,61.65
2023-03-30T06:45:57.215Z,61.46
2023-03-30T06:46:57.197Z,61.84
2023-03-30T06:47:57.182Z,61.65
2023-03-30T06:48:57.166Z,61.74
2023-03-30T06:49:57.166Z,61.71
2023-03-30T06:50:57.163Z,61.94
2023-03-30T06:51:57.143Z,61.71
2023-03-30T06:52:57.153Z,62.10
2023-03-30T06:53:57.151Z,62.10
2023-03-30T06:54:57.146Z,61.81
2023-03-30T06:55:57.145Z,61.84
2023-03-30T06:56:57.173Z,61.91
2023-03-30T06:57:57.135Z,61.94
2023-03-30T06:58:57.146Z,62.13
2023-03-30T06:59:57.140Z,62.00
2023-03-30T07:00:57.225Z,62.19
2023-03-30T07:01:57.300Z,61.94
2023-03-30T07:02:57.508Z,62.00
2023-03-30T07:03:57.179Z,62.00
2023-03-30T07:04:57.129Z,62.23
2023-03-30T07:05:57.095Z,61.81
2023-03-30T07:06:57.126Z,62.10
2023-03-30T07:07:57.118Z,61.91
2023-03-30T07:08:57.106Z,62.10
2023-03-30T07:09:57.113Z,62.19
2023-03-30T07:10:57.092Z,62.00
2023-03-30T07:11:57.110Z,61.71
2023-03-30T07:12:57.090Z,61.91
2023-03-30T07:13:57.087Z,61.91
2023-03-30T07:14:57.094Z,62.00
2023-03-30T07:15:57.090Z,62.00
2023-03-30T07:16:57.400Z,62.10
2023-03-30T07:17:57.154Z,62.00
2023-03-30T07:18:57.110Z,61.91
2023-03-30T07:19:57.084Z,62.00
2023-03-30T07:20:57.070Z,62.58
2023-03-30T07:21:57.064Z,62.38
2023-03-30T07:22:57.061Z,62.87
2023-03-30T07:23:57.071Z,62.64
2023-03-30T07:24:57.057Z,63.02
2023-03-30T07:25:57.058Z,63.41
2023-03-30T07:26:57.050Z,63.70
2023-03-30T07:27:57.063Z,63.41
2023-03-30T07:28:57.100Z,63.57
2023-03-30T07:30:04.585Z,64.05
2023-03-30T07:30:57.081Z,64.25
2023-03-30T07:31:57.135Z,64.25
2023-03-30T07:32:58.684Z,64.34
2023-03-30T07:33:57.058Z,64.72
2023-03-30T07:34:57.051Z,64.59
2023-03-30T07:35:57.049Z,64.98
2023-03-30T07:36:57.018Z,65.08
2023-03-30T07:38:02.878Z,64.69
2023-03-30T07:38:57.046Z,64.69
2023-03-30T07:39:57.040Z,64.89
2023-03-30T07:40:57.014Z,64.98
2023-03-30T07:41:57.027Z,64.59
2023-03-30T07:42:56.998Z,64.79
2023-03-30T07:43:57.007Z,65.27
2023-03-30T07:44:56.989Z,65.14
2023-03-30T07:45:57.033Z,65.36
2023-03-30T07:46:56.998Z,65.14
2023-03-30T07:47:57.102Z,65.14
2023-03-30T07:48:56.984Z,64.59
2023-03-30T07:49:56.963Z,64.56
2023-03-30T07:50:56.987Z,65.43
2023-03-30T07:51:56.969Z,64.76
2023-03-30T07:52:56.963Z,64.76
2023-03-30T07:53:56.972Z,64.56
2023-03-30T07:54:56.930Z,64.95
2023-03-30T07:55:56.940Z,65.14
2023-03-30T07:56:56.957Z,64.95
2023-03-30T07:57:56.931Z,64.66
2023-03-30T07:58:57.278Z,64.47
2023-03-30T07:59:56.920Z,64.66
2023-03-30T08:00:56.925Z,64.95
2023-03-30T08:01:57.093Z,64.85
2023-03-30T08:02:56.978Z,64.76
2023-03-30T08:03:56.998Z,64.76
2023-03-30T08:04:57.219Z,64.76
2023-03-30T08:05:56.887Z,65.14
2023-03-30T08:06:57.021Z,64.47
2023-03-30T08:07:57.060Z,64.47
2023-03-30T08:08:56.876Z,64.66
2023-03-30T08:09:56.876Z,64.56
2023-03-30T08:10:56.969Z,64.56
2023-03-30T08:11:56.868Z,64.56
2023-03-30T08:12:56.892Z,64.66
2023-03-30T08:13:56.855Z,64.56
2023-03-30T08:14:56.876Z,64.18
2023-03-30T08:15:56.898Z,64.85
2023-03-30T08:16:56.830Z,64.18
2023-03-30T08:17:56.890Z,64.37
2023-03-30T08:18:56.815Z,64.28
2023-03-30T08:19:56.847Z,64.18
2023-03-30T08:20:56.898Z,64.37
2023-03-30T08:21:57.009Z,64.47
2023-03-30T08:22:56.899Z,64.47
2023-03-30T08:23:56.855Z,64.28
2023-03-30T08:24:56.868Z,64.37
2023-03-30T08:25:56.868Z,64.47
2023-03-30T08:26:56.890Z,64.47
2023-03-30T08:27:56.776Z,64.47
2023-03-30T08:28:56.793Z,63.99
2023-03-30T08:29:56.771Z,64.18
2023-03-30T08:30:56.758Z,64.18
2023-03-30T08:31:56.833Z,64.28
2023-03-30T08:32:56.779Z,64.28
2023-03-30T08:33:56.731Z,63.99
2023-03-30T08:34:56.915Z,64.28
2023-03-30T08:35:57.013Z,63.70
2023-03-30T08:36:56.989Z,64.18
2023-03-30T08:37:56.711Z,64.47
2023-03-30T08:38:56.724Z,64.28
2023-03-30T08:39:56.723Z,64.28
2023-03-30T08:40:56.690Z,64.18
2023-03-30T08:41:56.688Z,64.28
2023-03-30T08:42:56.682Z,64.18
2023-03-30T08:43:56.678Z,64.18
2023-03-30T08:44:56.689Z,64.09
2023-03-30T08:45:56.706Z,63.79
2023-03-30T08:46:56.704Z,63.89
2023-03-30T08:47:56.788Z,63.70
2023-03-30T08:48:56.644Z,63.99
2023-03-30T08:49:56.635Z,63.42
2023-03-30T08:50:56.641Z,63.70
2023-03-30T08:51:56.631Z,63.42
2023-03-30T08:52:56.634Z,63.79
2023-03-30T08:53:56.629Z,63.70
2023-03-30T08:54:56.635Z,63.79
2023-03-30T08:55:56.633Z,63.79
2023-03-30T08:56:56.653Z,63.60
2023-03-30T08:57:56.650Z,63.51
2023-03-30T08:58:56.663Z,63.22
2023-03-30T08:59:56.596Z,63.32
2023-03-30T09:00:56.633Z,63.42
2023-03-30T09:01:56.620Z,63.32
2023-03-30T09:02:56.633Z,63.42
2023-03-30T09:03:56.583Z,63.32
2023-03-30T09:04:56.609Z,63.51
2023-03-30T09:05:56.585Z,63.42
2023-03-30T09:06:56.541Z,63.42
2023-03-30T09:07:56.548Z,63.42
2023-03-30T09:08:56.534Z,63.51
2023-03-30T09:09:56.547Z,63.42
2023-03-30T09:10:56.547Z,63.51
2023-03-30T09:11:56.551Z,63.42
2023-03-30T09:12:56.535Z,63.32
2023-03-30T09:13:56.534Z,63.79
2023-03-30T09:14:56.502Z,63.79
2023-03-30T09:15:56.505Z,63.79
2023-03-30T09:16:56.629Z,63.99
2023-03-30T09:17:56.563Z,64.09
2023-03-30T09:18:56.502Z,64.18
2023-03-30T09:19:56.474Z,63.76
2023-03-30T09:20:56.469Z,64.15
2023-03-30T09:21:56.511Z,64.28
2023-03-30T09:22:56.450Z,64.53
2023-03-30T09:23:56.477Z,64.15
2023-03-30T09:24:56.451Z,64.34
2023-03-30T09:25:57.407Z,64.43
2023-03-30T09:26:56.484Z,64.72
2023-03-30T09:27:56.438Z,64.63
2023-03-30T09:28:56.431Z,64.43
2023-03-30T09:29:56.456Z,64.53
2023-03-30T09:30:56.408Z,64.72
2023-03-30T09:31:56.455Z,64.53
2023-03-30T09:32:56.434Z,64.43
2023-03-30T09:33:56.398Z,64.92
2023-03-30T09:34:56.389Z,64.92
2023-03-30T09:35:56.398Z,65.01
2023-03-30T09:36:56.372Z,64.82
2023-03-30T09:37:56.365Z,64.82
2023-03-30T09:38:56.367Z,64.63
2023-03-30T09:39:56.366Z,64.63
2023-03-30T09:40:56.344Z,64.53
2023-03-30T09:41:56.338Z,65.08
2023-03-30T09:42:56.399Z,64.63
2023-03-30T09:43:56.339Z,65.17
2023-03-30T09:44:56.385Z,65.30
2023-03-30T09:45:56.340Z,65.26
2023-03-30T09:46:56.345Z,65.08
2023-03-30T09:47:56.344Z,65.94
2023-03-30T09:48:56.306Z,65.36
2023-03-30T09:49:56.332Z,65.65
2023-03-30T09:50:56.278Z,65.62
2023-03-30T09:51:56.289Z,66.67
2023-03-30T09:52:56.269Z,66.00
2023-03-30T09:53:56.271Z,66.48
2023-03-30T09:54:56.258Z,66.67
2023-03-30T09:55:56.256Z,67.34
2023-03-30T09:56:56.271Z,67.63
2023-03-30T09:57:56.227Z,67.21
2023-03-30T09:58:56.274Z,67.50
2023-03-30T09:59:56.217Z,67.50
2023-03-30T10:00:56.204Z,67.69
2023-03-30T10:01:56.230Z,67.88
2023-03-30T10:02:56.264Z,67.41
2023-03-30T10:03:56.375Z,67.60
2023-03-30T10:04:56.244Z,67.60
2023-03-30T10:05:56.181Z,67.88
2023-03-30T10:06:58.706Z,67.98
2023-03-30T10:07:56.168Z,67.50
2023-03-30T10:08:56.155Z,67.60
2023-03-30T10:09:56.156Z,67.60
2023-03-30T10:10:56.164Z,67.79
2023-03-30T10:11:56.140Z,67.98
2023-03-30T10:12:56.191Z,67.88
2023-03-30T10:13:56.115Z,67.88
2023-03-30T10:14:56.124Z,67.98
2023-03-30T10:15:56.185Z,67.79
2023-03-30T10:16:56.098Z,67.88
2023-03-30T10:17:56.137Z,67.50
2023-03-30T10:18:56.093Z,67.60
2023-03-30T10:20:07.227Z,67.79
2023-03-30T10:20:56.054Z,67.31
2023-03-30T10:21:56.089Z,67.88
2023-03-30T10:22:56.044Z,67.60
2023-03-30T10:23:56.047Z,67.50
2023-03-30T10:24:56.046Z,67.88
2023-03-30T10:25:56.045Z,67.88
2023-03-30T10:26:56.028Z,67.88
2023-03-30T10:27:56.068Z,67.88
2023-03-30T10:28:56.004Z,67.60
2023-03-30T10:29:56.003Z,67.60
2023-03-30T10:30:56.031Z,67.79
2023-03-30T10:31:56.137Z,67.79
2023-03-30T10:32:56.250Z,67.50
2023-03-30T10:33:55.983Z,67.50
2023-03-30T10:34:55.982Z,67.41
2023-03-30T10:35:56.038Z,67.31
2023-03-30T10:36:55.946Z,67.60
2023-03-30T10:37:55.937Z,67.41
2023-03-30T10:38:55.929Z,67.50
2023-03-30T10:39:55.972Z,67.41
2023-03-30T10:40:55.917Z,67.41
2023-03-30T10:41:57.963Z,67.31
2023-03-30T10:42:55.932Z,67.31
2023-03-30T10:43:55.901Z,67.21
2023-03-30T10:44:55.907Z,67.31
2023-03-30T10:45:58.328Z,67.21
2023-03-30T10:46:55.960Z,67.41
2023-03-30T10:47:58.029Z,67.31
2023-03-30T10:48:55.878Z,67.21
2023-03-30T10:49:55.862Z,66.74
2023-03-30T10:50:55.848Z,66.83
2023-03-30T10:51:55.874Z,67.02
2023-03-30T10:52:59.017Z,67.02
2023-03-30T10:53:57.434Z,67.11
2023-03-30T10:54:55.818Z,67.11
2023-03-30T10:55:55.815Z,67.11
2023-03-30T10:56:55.851Z,66.83
2023-03-30T10:57:55.808Z,66.74
2023-03-30T10:58:55.781Z,66.83
2023-03-30T10:59:57.962Z,66.93
2023-03-30T11:00:55.807Z,66.74
2023-03-30T11:01:55.798Z,66.74
2023-03-30T11:02:55.860Z,66.64
2023-03-30T11:03:55.825Z,66.64
2023-03-30T11:04:55.739Z,66.74
2023-03-30T11:05:55.752Z,66.64
2023-03-30T11:06:55.767Z,66.45
2023-03-30T11:07:55.733Z,66.35
2023-03-30T11:08:55.733Z,66.74
2023-03-30T11:09:55.731Z,66.54
2023-03-30T11:10:55.700Z,66.74
2023-03-30T11:11:55.702Z,66.93
2023-03-30T11:12:55.682Z,66.35
2023-03-30T11:13:55.710Z,66.25
2023-03-30T11:14:55.684Z,66.16
2023-03-30T11:15:55.709Z,65.88
2023-03-30T11:16:55.669Z,66.16
2023-03-30T11:17:55.698Z,66.16
2023-03-30T11:18:55.677Z,65.88
2023-03-30T11:19:55.638Z,66.45
2023-03-30T11:20:55.663Z,66.16
2023-03-30T11:21:55.641Z,66.25
2023-03-30T11:22:55.653Z,66.54
2023-03-30T11:23:55.625Z,66.29
2023-03-30T11:24:55.608Z,65.91
2023-03-30T11:25:55.597Z,65.71
2023-03-30T11:26:55.600Z,65.62
2023-03-30T11:27:56.577Z,65.78
2023-03-30T11:28:55.587Z,65.62
2023-03-30T11:29:55.574Z,65.62
2023-03-30T11:30:55.559Z,65.71
2023-03-30T11:31:55.611Z,65.71
2023-03-30T11:32:55.593Z,65.71
2023-03-30T11:33:55.537Z,65.81
2023-03-30T11:34:55.544Z,65.42
2023-03-30T11:35:55.612Z,65.52
2023-03-30T11:36:55.527Z,65.71
2023-03-30T11:37:55.526Z,65.71
2023-03-30T11:38:55.506Z,65.52
2023-03-30T11:39:55.512Z,65.81
2023-03-30T11:40:55.519Z,65.62
2023-03-30T11:41:55.484Z,65.71
2023-03-30T11:42:55.499Z,65.62
2023-03-30T11:43:55.470Z,65.71
2023-03-30T11:44:55.464Z,65.42
2023-03-30T11:45:55.490Z,65.33
2023-03-30T11:46:55.506Z,65.33
2023-03-30T11:47:55.492Z,65.23
2023-03-30T11:48:55.455Z,64.85
2023-03-30T11:49:55.435Z,64.85
2023-03-30T11:50:55.459Z,65.14
2023-03-30T11:51:55.433Z,65.05
2023-03-30T11:52:55.435Z,65.05
2023-03-30T11:53:55.426Z,65.23
2023-03-30T11:55:03.078Z,65.05
2023-03-30T11:55:55.392Z,64.98
2023-03-30T11:56:55.455Z,64.40
2023-03-30T11:57:55.373Z,64.89
2023-03-30T11:58:55.371Z,65.08
2023-03-30T11:59:55.368Z,65.08
2023-03-30T12:00:55.380Z,64.50
2023-03-30T12:01:55.358Z,64.59
2023-03-30T12:02:55.388Z,64.69
2023-03-30T12:03:55.445Z,64.89
2023-03-30T12:04:55.382Z,64.69
2023-03-30T12:05:55.326Z,64.50
2023-03-30T12:06:55.447Z,64.31
2023-03-30T12:07:55.313Z,64.59
2023-03-30T12:08:55.338Z,64.69
2023-03-30T12:09:55.304Z,64.50
2023-03-30T12:10:55.313Z,64.89
2023-03-30T12:11:55.300Z,64.12
2023-03-30T12:12:55.297Z,64.12
2023-03-30T12:13:55.269Z,64.22
2023-03-30T12:14:55.272Z,64.40
2023-03-30T12:15:55.293Z,64.12
2023-03-30T12:16:55.279Z,64.02
2023-03-30T12:17:55.326Z,63.92
2023-03-30T12:18:55.252Z,64.15
2023-03-30T12:19:56.582Z,64.05
2023-03-30T12:20:55.250Z,64.05
2023-03-30T12:21:55.233Z,64.12
2023-03-30T12:22:55.246Z,64.25
2023-03-30T12:23:55.233Z,63.64
2023-03-30T12:24:55.208Z,63.57
2023-03-30T12:25:55.213Z,63.76
2023-03-30T12:27:05.385Z,63.86
2023-03-30T12:27:55.198Z,63.29
2023-03-30T12:29:32.693Z,63.19
2023-03-30T12:30:01.587Z,63.48
2023-03-30T12:30:55.175Z,63.48
2023-03-30T12:31:55.183Z,63.48
2023-03-30T12:32:55.234Z,63.19
2023-03-30T12:33:55.188Z,63.29
2023-03-30T12:34:55.175Z,63.09
2023-03-30T12:35:55.168Z,63.19
2023-03-30T12:36:55.148Z,62.90
2023-03-30T12:37:55.148Z,63.03
2023-03-30T12:38:55.163Z,63.22
2023-03-30T12:39:55.139Z,62.93
2023-03-30T12:40:55.144Z,63.22
2023-03-30T12:41:56.946Z,62.93
2023-03-30T12:42:55.124Z,62.74
2023-03-30T12:43:55.123Z,62.84
2023-03-30T12:44:55.114Z,62.65
2023-03-30T12:45:55.135Z,62.26
2023-03-30T12:46:55.110Z,62.55
2023-03-30T12:47:55.112Z,62.36
2023-03-30T12:48:55.104Z,62.65
2023-03-30T12:49:55.095Z,62.55
2023-03-30T12:50:55.108Z,62.84
2023-03-30T12:51:55.079Z,62.74
2023-03-30T12:52:55.076Z,62.74